Time;durP1;ratioP1;P1;durP2;ratioP2;P2;SDS_P1;SDS_P2;PMS_P1;PMS_P2;Temp;Humidity;BMP_temperature;BMP_pressure;BME280_temperature;BME280_humidity;BME280_pressure;Samples;Min_cycle;Max_cycle;Signal;HPM_P1;HPM_P2
2023/05/18 00:02:02;;;;;;;0.88;0.80;;;10.70;61.90;;;;;;5034205;28;20563;-67
2023/05/18 00:04:30;;;;;;;2.90;0.87;;;10.70;62.00;;;;;;5036649;28;20032;-68
2023/05/18 00:06:57;;;;;;;1.90;0.73;;;10.70;62.00;;;;;;5037488;28;20397;-61
2023/05/18 00:09:26;;;;;;;3.38;1.13;;;10.70;62.20;;;;;;5033391;28;20021;-60
2023/05/18 00:11:52;;;;;;;1.08;0.77;;;10.70;62.20;;;;;;5034326;28;20033;-60
2023/05/18 00:14:18;;;;;;;3.60;0.90;;;10.60;62.20;;;;;;5039089;28;20041;-60
2023/05/18 00:16:44;;;;;;;2.17;0.70;;;10.70;62.50;;;;;;5038661;28;20037;-60
2023/05/18 00:19:13;;;;;;;2.25;0.82;;;10.60;62.50;;;;;;5037892;28;20037;-60
2023/05/18 00:21:43;;;;;;;4.68;1.40;;;10.60;62.60;;;;;;5037161;28;20021;-67
2023/05/18 00:24:12;;;;;;;0.90;0.90;;;10.60;62.60;;;;;;5029503;28;20057;-67
2023/05/18 00:26:45;;;;;;;1.60;0.95;;;10.60;62.70;;;;;;5037960;28;20025;-67
2023/05/18 00:29:11;;;;;;;1.75;0.80;;;10.60;62.60;;;;;;5035597;28;20029;-68
2023/05/18 00:31:38;;;;;;;1.17;0.80;;;10.50;62.60;;;;;;5032907;28;20645;-68
2023/05/18 00:34:07;;;;;;;0.77;0.60;;;10.50;62.70;;;;;;5032923;28;20030;-60
2023/05/18 00:36:34;;;;;;;2.38;1.10;;;10.50;62.80;;;;;;5032242;28;20022;-60
2023/05/18 00:39:00;;;;;;;3.38;1.48;;;10.40;62.90;;;;;;5021506;28;20131;-60
2023/05/18 00:41:26;;;;;;;4.25;1.13;;;10.40;63.00;;;;;;5022714;28;20033;-60
2023/05/18 00:43:53;;;;;;;0.60;0.60;;;10.40;63.10;;;;;;5026569;28;20020;-60
2023/05/18 00:46:19;;;;;;;0.93;0.65;;;10.30;63.10;;;;;;5023924;28;20030;-61
2023/05/18 00:48:45;;;;;;;1.55;0.98;;;10.30;63.10;;;;;;5027896;28;20906;-62
2023/05/18 00:51:11;;;;;;;4.10;0.52;;;10.30;63.10;;;;;;5028197;28;20092;-61
2023/05/18 00:53:37;;;;;;;1.02;0.93;;;10.30;63.10;;;;;;5017794;28;20034;-61
2023/05/18 00:56:03;;;;;;;3.60;0.80;;;10.30;63.10;;;;;;5020528;28;20100;-60
2023/05/18 00:58:30;;;;;;;1.85;1.13;;;10.30;63.20;;;;;;5022888;28;20030;-68
2023/05/18 01:00:56;;;;;;;1.10;0.93;;;10.30;63.30;;;;;;5023316;28;20511;-68
2023/05/18 01:03:22;;;;;;;1.45;1.00;;;10.30;63.30;;;;;;5025750;28;20041;-59
2023/05/18 01:05:49;;;;;;;0.70;0.52;;;10.30;63.30;;;;;;5027484;28;20053;-60
2023/05/18 01:08:15;;;;;;;1.85;0.73;;;10.30;63.20;;;;;;5030858;28;20037;-61
2023/05/18 01:10:43;;;;;;;1.60;1.13;;;10.20;63.30;;;;;;5027740;28;20026;-61
2023/05/18 01:13:15;;;;;;;1.65;0.80;;;10.10;63.50;;;;;;5028770;28;20029;-61
2023/05/18 01:15:43;;;;;;;1.00;0.80;;;10.10;63.60;;;;;;5016990;28;20037;-60
2023/05/18 01:18:21;;;;;;;1.05;0.60;;;10.10;63.70;;;;;;5026445;28;20037;-61
2023/05/18 01:21:18;;;;;;;3.92;0.63;;;10.10;63.60;;;;;;5017862;28;20040;-68
2023/05/18 01:23:56;;;;;;;1.25;1.08;;;10.00;63.60;;;;;;5008327;28;20429;-68
2023/05/18 01:26:23;;;;;;;1.38;0.50;;;10.10;63.90;;;;;;5028107;28;20092;-61
2023/05/18 01:28:50;;;;;;;1.33;0.90;;;10.00;63.90;;;;;;5027944;28;20057;-61
2023/05/18 01:31:16;;;;;;;1.60;1.23;;;10.00;63.90;;;;;;5028624;28;20037;-60
2023/05/18 01:33:43;;;;;;;2.53;1.02;;;10.00;64.00;;;;;;5029257;28;20033;-60
2023/05/18 01:36:10;;;;;;;0.98;0.80;;;10.00;64.10;;;;;;5028445;28;20052;-61
2023/05/18 01:38:37;;;;;;;2.08;1.23;;;10.00;64.20;;;;;;5027929;28;20083;-60
2023/05/18 01:41:02;;;;;;;1.05;0.85;;;10.00;64.20;;;;;;5027103;28;20405;-61
2023/05/18 01:43:34;;;;;;;3.35;0.90;;;9.90;64.10;;;;;;5029086;28;20036;-68
2023/05/18 01:46:31;;;;;;;3.70;1.05;;;9.90;64.20;;;;;;5030501;28;20022;-60
2023/05/18 01:49:04;;;;;;;1.70;0.95;;;9.90;64.10;;;;;;5023506;28;20128;-60
2023/05/18 01:51:35;;;;;;;1.05;0.82;;;9.90;64.20;;;;;;5043244;28;20387;-68
2023/05/18 01:54:06;;;;;;;1.05;0.82;;;9.90;64.30;;;;;;5041121;28;20785;-68
2023/05/18 01:56:33;;;;;;;1.02;0.90;;;9.90;64.30;;;;;;5032295;28;20037;-68
2023/05/18 01:59:00;;;;;;;2.17;1.40;;;9.80;64.30;;;;;;5041209;28;20526;-68
2023/05/18 02:01:26;;;;;;;3.40;1.10;;;9.80;64.50;;;;;;5043058;28;20020;-68
2023/05/18 02:03:51;;;;;;;1.15;0.55;;;9.80;64.60;;;;;;5045115;28;20052;-68
2023/05/18 02:06:17;;;;;;;1.17;0.93;;;9.80;64.50;;;;;;5043411;28;20021;-68
2023/05/18 02:08:43;;;;;;;1.55;0.70;;;9.70;64.50;;;;;;5035052;28;20841;-68
2023/05/18 02:11:08;;;;;;;1.17;1.08;;;9.70;64.80;;;;;;5033620;28;20022;-68
2023/05/18 02:13:34;;;;;;;2.83;0.90;;;9.70;64.80;;;;;;5043506;28;20037;-68
2023/05/18 02:16:03;;;;;;;3.58;1.00;;;9.70;64.80;;;;;;5045253;28;20025;-60
2023/05/18 02:18:29;;;;;;;5.95;1.15;;;9.60;64.80;;;;;;5043698;28;20439;-60
2023/05/18 02:20:58;;;;;;;1.02;0.93;;;9.60;64.90;;;;;;5033514;28;20037;-68
2023/05/18 02:23:25;;;;;;;0.70;0.70;;;9.70;65.00;;;;;;5028699;28;20493;-68
2023/05/18 02:25:54;;;;;;;2.45;0.98;;;9.60;65.10;;;;;;5031562;28;20151;-61
2023/05/18 02:28:20;;;;;;;4.25;1.35;;;9.60;65.10;;;;;;5032983;28;20022;-60
2023/05/18 02:30:46;;;;;;;1.00;0.82;;;9.60;65.10;;;;;;5029248;28;20029;-61
2023/05/18 02:33:11;;;;;;;1.00;0.70;;;9.60;65.10;;;;;;5030901;28;20029;-60
2023/05/18 02:35:37;;;;;;;1.40;1.10;;;9.60;65.10;;;;;;5030895;28;20108;-61
2023/05/18 02:38:03;;;;;;;1.83;0.90;;;9.50;65.20;;;;;;5032773;28;20064;-68
2023/05/18 02:40:28;;;;;;;2.15;1.33;;;9.50;65.20;;;;;;5030099;28;20583;-68
2023/05/18 02:42:54;;;;;;;0.75;0.73;;;9.50;65.30;;;;;;5031728;28;20026;-68
2023/05/18 02:45:20;;;;;;;1.55;1.00;;;9.50;65.40;;;;;;5023425;28;20026;-68
2023/05/18 02:47:46;;;;;;;2.00;1.30;;;9.50;65.40;;;;;;5030972;28;20108;-61
2023/05/18 02:50:11;;;;;;;1.30;0.95;;;9.50;65.40;;;;;;5037045;28;20029;-60
2023/05/18 02:52:38;;;;;;;3.50;1.10;;;9.50;65.40;;;;;;5041846;28;20029;-61
2023/05/18 02:55:05;;;;;;;5.00;1.00;;;9.50;65.30;;;;;;5034730;28;20496;-60
2023/05/18 02:57:31;;;;;;;1.73;1.15;;;9.50;65.50;;;;;;5033328;28;20035;-61
2023/05/18 02:59:57;;;;;;;1.15;0.70;;;9.40;65.50;;;;;;5034792;28;20116;-60
2023/05/18 03:02:23;;;;;;;7.18;0.93;;;9.40;65.60;;;;;;5034049;28;20033;-60
2023/05/18 03:04:56;;;;;;;2.22;0.88;;;9.40;66.30;;;;;;5033089;28;20029;-61
2023/05/18 03:07:22;;;;;;;1.80;1.10;;;9.30;65.70;;;;;;5030170;28;20048;-60
2023/05/18 03:09:48;;;;;;;1.90;0.75;;;9.30;65.70;;;;;;5033231;28;20108;-60
2023/05/18 03:12:14;;;;;;;0.95;0.75;;;9.30;65.80;;;;;;5032564;28;20116;-61
2023/05/18 03:14:40;;;;;;;0.70;0.60;;;9.30;65.80;;;;;;5028873;28;20534;-68
2023/05/18 03:17:05;;;;;;;3.15;1.63;;;9.30;65.80;;;;;;5028704;28;20025;-61
2023/05/18 03:19:33;;;;;;;1.15;0.77;;;9.30;65.90;;;;;;5029793;28;20045;-60
2023/05/18 03:21:59;;;;;;;0.77;0.73;;;9.30;65.90;;;;;;5023330;28;20588;-60
2023/05/18 03:24:28;;;;;;;2.97;1.20;;;9.30;65.90;;;;;;5025982;28;20499;-68
2023/05/18 03:26:55;;;;;;;1.92;1.08;;;9.30;66.00;;;;;;5026167;28;20018;-68
2023/05/18 03:29:22;;;;;;;2.80;1.08;;;9.30;66.10;;;;;;5025678;28;20037;-60
2023/05/18 03:31:48;;;;;;;0.75;0.65;;;9.30;66.10;;;;;;5029837;28;20105;-60
2023/05/18 03:34:13;;;;;;;1.48;0.80;;;9.30;66.10;;;;;;5028314;28;20539;-60
2023/05/18 03:36:41;;;;;;;1.67;0.85;;;9.30;66.20;;;;;;5026319;28;20028;-61
2023/05/18 03:39:07;;;;;;;5.25;1.00;;;9.30;66.20;;;;;;5029236;28;20039;-61
2023/05/18 03:41:33;;;;;;;3.75;1.02;;;9.30;66.20;;;;;;5026153;28;20029;-67
2023/05/18 03:43:59;;;;;;;1.75;1.13;;;9.30;66.20;;;;;;5029590;28;20033;-60
2023/05/18 03:46:25;;;;;;;1.63;0.80;;;9.30;66.20;;;;;;5027772;28;20033;-68
2023/05/18 03:48:52;;;;;;;1.00;0.73;;;9.30;66.30;;;;;;5032380;28;20033;-60
2023/05/18 03:51:18;;;;;;;1.92;0.85;;;9.30;66.30;;;;;;5043448;28;20049;-60
2023/05/18 03:53:44;;;;;;;1.88;1.13;;;9.30;66.20;;;;;;5029263;28;20037;-60
2023/05/18 03:56:12;;;;;;;2.65;1.08;;;9.30;66.40;;;;;;5029491;28;20043;-68
2023/05/18 03:58:37;;;;;;;7.20;1.60;;;9.30;66.40;;;;;;5036784;28;20073;-68
2023/05/18 04:01:03;;;;;;;2.53;1.00;;;9.30;66.50;;;;;;5029704;28;20428;-60
2023/05/18 04:03:33;;;;;;;1.05;0.82;;;9.30;66.60;;;;;;5029851;28;20308;-60
2023/05/18 04:05:59;;;;;;;2.30;0.93;;;9.30;66.50;;;;;;5028978;28;20104;-60
2023/05/18 04:08:25;;;;;;;2.78;1.13;;;9.40;66.60;;;;;;5026765;28;20604;-60
2023/05/18 04:10:51;;;;;;;4.13;0.88;;;9.40;66.50;;;;;;5028669;28;20039;-59
2023/05/18 04:13:16;;;;;;;0.63;0.63;;;9.40;66.50;;;;;;5031597;28;20102;-60
2023/05/18 04:15:42;;;;;;;1.85;0.95;;;9.40;66.30;;;;;;5030661;28;20038;-60
2023/05/18 04:18:09;;;;;;;2.88;0.90;;;9.40;66.20;;;;;;5026316;28;20029;-60
2023/05/18 04:20:36;;;;;;;1.45;1.08;;;9.50;66.20;;;;;;5028212;28;20091;-60
2023/05/18 04:23:04;;;;;;;3.03;1.48;;;9.50;66.00;;;;;;5034156;28;20444;-60
2023/05/18 04:25:30;;;;;;;1.42;0.98;;;9.50;66.00;;;;;;5034132;28;20044;-60
2023/05/18 04:27:56;;;;;;;0.82;0.63;;;9.60;66.00;;;;;;5035706;28;20036;-59
2023/05/18 04:30:22;;;;;;;0.50;0.50;;;9.60;65.90;;;;;;5030037;28;20113;-68
2023/05/18 04:32:49;;;;;;;1.13;0.82;;;9.60;65.80;;;;;;5028773;28;20033;-68
2023/05/18 04:35:15;;;;;;;1.92;0.85;;;9.70;66.40;;;;;;5034779;28;20124;-68
2023/05/18 04:37:41;;;;;;;4.07;1.35;;;9.70;65.90;;;;;;5034144;28;20120;-68
2023/05/18 04:40:15;;;;;;;1.17;1.08;;;9.80;65.70;;;;;;5030558;28;20044;-67
2023/05/18 04:42:46;;;;;;;0.80;0.50;;;9.90;65.60;;;;;;5033418;28;20028;-68
2023/05/18 04:45:19;;;;;;;0.73;0.73;;;9.90;65.30;;;;;;5031068;28;20476;-68
2023/05/18 04:47:46;;;;;;;1.83;0.75;;;10.00;65.20;;;;;;5036153;28;20113;-68
2023/05/18 04:50:22;;;;;;;0.70;0.70;;;10.00;65.10;;;;;;5030200;28;20438;-69
2023/05/18 04:52:50;;;;;;;0.95;0.73;;;10.00;64.80;;;;;;5026062;28;20057;-68
2023/05/18 04:55:26;;;;;;;0.70;0.60;;;10.10;64.80;;;;;;5033907;28;20033;-67
2023/05/18 04:57:56;;;;;;;2.33;1.23;;;10.10;64.50;;;;;;5028957;28;20049;-68
2023/05/18 05:00:25;;;;;;;1.15;0.50;;;10.20;65.10;;;;;;5035184;28;20033;-68
2023/05/18 05:02:51;;;;;;;0.75;0.50;;;10.30;64.30;;;;;;5036717;28;20049;-69
2023/05/18 05:05:17;;;;;;;0.60;0.57;;;10.30;64.20;;;;;;5036236;28;20033;-69
2023/05/18 05:07:43;;;;;;;1.48;1.00;;;10.30;64.00;;;;;;5036365;28;20107;-69
2023/05/18 05:10:10;;;;;;;0.52;0.50;;;10.30;63.90;;;;;;5034994;28;20448;-68
2023/05/18 05:12:37;;;;;;;0.70;0.70;;;10.40;63.80;;;;;;5031822;28;20022;-60
2023/05/18 05:15:03;;;;;;;0.40;0.40;;;10.40;63.70;;;;;;5031479;28;20053;-60
2023/05/18 05:17:29;;;;;;;1.23;1.00;;;10.50;63.70;;;;;;5036136;28;20021;-60
2023/05/18 05:19:55;;;;;;;4.38;1.02;;;10.50;63.50;;;;;;5036005;28;20044;-61
2023/05/18 05:22:20;;;;;;;1.30;0.55;;;10.60;63.50;;;;;;5027092;28;20049;-60
2023/05/18 05:24:46;;;;;;;0.35;0.35;;;10.70;63.30;;;;;;5031422;28;20461;-61
2023/05/18 05:27:12;;;;;;;2.38;0.57;;;10.70;63.10;;;;;;5031200;28;20036;-68
2023/05/18 05:29:37;;;;;;;0.63;0.50;;;10.80;63.00;;;;;;5035834;28;20087;-61
2023/05/18 05:32:04;;;;;;;1.85;0.85;;;10.80;62.70;;;;;;5028556;28;20034;-62
2023/05/18 05:34:29;;;;;;;0.88;0.47;;;10.80;62.60;;;;;;5033067;28;20029;-61
2023/05/18 05:36:55;;;;;;;0.70;0.70;;;10.80;62.60;;;;;;5035967;28;20429;-60
2023/05/18 05:39:21;;;;;;;0.52;0.40;;;10.80;62.50;;;;;;5037011;28;20069;-61
2023/05/18 05:41:46;;;;;;;1.25;0.52;;;10.80;62.50;;;;;;5030382;28;20400;-61
2023/05/18 05:44:12;;;;;;;0.93;0.80;;;10.80;62.40;;;;;;5033840;28;20026;-60
2023/05/18 05:46:38;;;;;;;0.43;0.40;;;10.90;62.40;;;;;;5031039;28;20049;-59
2023/05/18 05:49:04;;;;;;;0.63;0.63;;;10.90;62.30;;;;;;5030279;28;20396;-60
2023/05/18 05:51:29;;;;;;;1.80;0.60;;;11.00;62.20;;;;;;5022808;28;20369;-69
2023/05/18 05:53:55;;;;;;;1.70;0.60;;;11.00;62.00;;;;;;5007271;28;20065;-60
2023/05/18 05:56:21;;;;;;;4.03;0.80;;;11.00;61.90;;;;;;5027134;28;20116;-61
2023/05/18 05:58:47;;;;;;;0.82;0.70;;;11.10;61.90;;;;;;5025026;28;20033;-60
2023/05/18 06:01:13;;;;;;;3.40;1.30;;;11.10;61.80;;;;;;5030355;28;20471;-60
2023/05/18 06:03:38;;;;;;;2.67;0.80;;;11.10;61.70;;;;;;5035389;28;20056;-61
2023/05/18 06:06:04;;;;;;;0.70;0.50;;;11.10;61.60;;;;;;5049173;28;20439;-69
2023/05/18 06:08:30;;;;;;;3.58;0.70;;;11.00;61.60;;;;;;5042960;28;20025;-61
2023/05/18 06:10:56;;;;;;;0.90;0.75;;;11.00;61.50;;;;;;5038956;28;20044;-71
2023/05/18 06:13:21;;;;;;;1.23;0.60;;;11.00;61.60;;;;;;5037298;28;20400;-68
2023/05/18 06:15:47;;;;;;;5.85;0.77;;;11.00;61.70;;;;;;5026879;28;20697;-69
2023/05/18 06:18:13;;;;;;;1.92;0.90;;;11.00;62.30;;;;;;5020255;28;20679;-68
2023/05/18 06:20:38;;;;;;;2.67;0.85;;;11.00;61.70;;;;;;5029267;28;20465;-69
2023/05/18 06:23:04;;;;;;;0.98;0.50;;;11.00;61.70;;;;;;5027074;28;20112;-69
2023/05/18 06:25:30;;;;;;;2.22;0.90;;;11.00;61.70;;;;;;5026991;28;20029;-69
2023/05/18 06:27:56;;;;;;;2.35;0.50;;;11.10;61.80;;;;;;5026728;28;20022;-70
2023/05/18 06:30:21;;;;;;;1.30;0.38;;;11.10;61.80;;;;;;5028868;28;20132;-70
2023/05/18 06:32:47;;;;;;;1.85;0.82;;;11.20;61.80;;;;;;5013944;28;20037;-70
2023/05/18 06:35:13;;;;;;;0.90;0.60;;;11.20;61.50;;;;;;5029628;28;20048;-70
2023/05/18 06:37:39;;;;;;;3.03;1.00;;;11.30;61.40;;;;;;5009993;28;20034;-70
2023/05/18 06:40:06;;;;;;;1.95;0.68;;;11.40;61.30;;;;;;5031699;28;20026;-70
2023/05/18 06:42:32;;;;;;;0.52;0.50;;;11.50;61.40;;;;;;5027249;28;20033;-70
2023/05/18 06:44:58;;;;;;;2.17;0.75;;;11.50;61.20;;;;;;5022761;28;20029;-70
2023/05/18 06:47:23;;;;;;;1.50;0.88;;;11.70;61.00;;;;;;5031553;28;20499;-70
2023/05/18 06:49:49;;;;;;;1.25;1.05;;;11.70;60.70;;;;;;5032333;28;20034;-68
2023/05/18 06:52:15;;;;;;;0.77;0.60;;;11.80;60.60;;;;;;5026187;28;20112;-68
2023/05/18 06:54:41;;;;;;;3.70;0.93;;;11.90;60.50;;;;;;5030474;28;20033;-69
2023/05/18 06:57:06;;;;;;;0.73;0.40;;;12.10;60.40;;;;;;5027549;28;20037;-69
2023/05/18 06:59:33;;;;;;;0.30;0.30;;;12.20;60.20;;;;;;5029614;28;20030;-68
2023/05/18 07:02:00;;;;;;;0.55;0.40;;;12.30;59.90;;;;;;5026268;28;20032;-68
2023/05/18 07:04:26;;;;;;;1.27;0.85;;;12.40;59.70;;;;;;5029999;28;20129;-69
2023/05/18 07:06:54;;;;;;;1.67;0.65;;;12.50;60.10;;;;;;5026317;28;20502;-68
2023/05/18 07:09:21;;;;;;;1.13;0.63;;;12.60;59.30;;;;;;5022582;28;20028;-69
2023/05/18 07:11:47;;;;;;;0.90;0.60;;;12.70;59.20;;;;;;5023986;28;20037;-69
2023/05/18 07:14:13;;;;;;;1.20;0.93;;;12.70;59.00;;;;;;5027997;28;20560;-68
2023/05/18 07:16:39;;;;;;;0.82;0.50;;;12.80;59.00;;;;;;5029192;28;20040;-69
2023/05/18 07:19:04;;;;;;;3.90;0.65;;;12.80;58.90;;;;;;5014539;28;20099;-69
2023/05/18 07:21:30;;;;;;;0.50;0.45;;;12.80;58.80;;;;;;5032480;28;20025;-69
2023/05/18 07:23:56;;;;;;;1.45;1.13;;;13.00;59.00;;;;;;5062600;28;20034;-69
2023/05/18 07:26:22;;;;;;;1.70;0.85;;;13.00;58.60;;;;;;5027327;28;20036;-69
2023/05/18 07:28:48;;;;;;;0.55;0.50;;;13.20;58.60;;;;;;5026538;28;20022;-69
2023/05/18 07:31:15;;;;;;;1.55;0.82;;;13.30;58.40;;;;;;5028996;28;20392;-68
2023/05/18 07:33:41;;;;;;;2.20;0.82;;;13.30;58.20;;;;;;5030391;28;20025;-69
2023/05/18 07:36:07;;;;;;;0.38;0.38;;;13.40;58.10;;;;;;5027746;28;20040;-69
2023/05/18 07:38:33;;;;;;;0.45;0.45;;;13.40;57.90;;;;;;5026606;28;20362;-69
2023/05/18 07:40:59;;;;;;;1.35;0.60;;;13.50;57.80;;;;;;5028898;28;20494;-69
2023/05/18 07:43:25;;;;;;;1.05;0.82;;;13.40;57.60;;;;;;5023032;28;20024;-69
2023/05/18 07:45:51;;;;;;;0.52;0.40;;;13.40;57.60;;;;;;5029027;28;20025;-69
2023/05/18 07:48:16;;;;;;;0.77;0.40;;;13.50;57.70;;;;;;5025425;28;20513;-69
2023/05/18 07:50:42;;;;;;;1.17;0.52;;;13.60;57.40;;;;;;5021622;28;20047;-70
2023/05/18 07:53:08;;;;;;;0.30;0.30;;;13.70;57.20;;;;;;5026389;28;20037;-69
2023/05/18 07:55:34;;;;;;;1.02;0.50;;;13.80;57.00;;;;;;5021540;28;20036;-63
2023/05/18 07:58:02;;;;;;;3.05;0.60;;;13.90;57.00;;;;;;5020308;28;20033;-69
2023/05/18 08:00:28;;;;;;;1.05;0.65;;;14.00;56.80;;;;;;5012002;28;20037;-70
2023/05/18 08:02:53;;;;;;;1.08;0.63;;;14.10;56.60;;;;;;5028338;28;20042;-69
2023/05/18 08:05:21;;;;;;;1.67;0.70;;;14.20;56.10;;;;;;5017064;28;20099;-68
2023/05/18 08:07:47;;;;;;;1.85;0.47;;;14.20;56.00;;;;;;5024447;28;20037;-69
2023/05/18 08:10:13;;;;;;;5.15;1.05;;;14.30;55.90;;;;;;5055861;28;20404;-69
2023/05/18 08:12:38;;;;;;;0.70;0.30;;;14.30;55.90;;;;;;5028021;28;20022;-69
2023/05/18 08:15:05;;;;;;;1.42;0.60;;;14.30;56.00;;;;;;5026964;28;20029;-69
2023/05/18 08:17:30;;;;;;;0.55;0.55;;;14.30;55.90;;;;;;5024875;28;20034;-69
2023/05/18 08:19:56;;;;;;;1.42;0.40;;;14.50;55.70;;;;;;5027114;28;20051;-69
2023/05/18 08:22:22;;;;;;;3.08;0.75;;;14.50;55.40;;;;;;5031063;28;20018;-69
2023/05/18 08:24:47;;;;;;;0.68;0.50;;;14.50;55.40;;;;;;5034691;28;20037;-69
2023/05/18 08:27:13;;;;;;;0.70;0.70;;;14.50;54.90;;;;;;5025463;28;20040;-69
2023/05/18 08:29:39;;;;;;;0.98;0.77;;;14.50;55.10;;;;;;5011768;28;20138;-70
2023/05/18 08:32:06;;;;;;;1.02;0.47;;;14.50;55.10;;;;;;5022553;28;20038;-69
2023/05/18 08:34:31;;;;;;;1.08;0.75;;;14.50;55.00;;;;;;5026252;28;20060;-69
2023/05/18 08:36:57;;;;;;;1.40;0.77;;;14.60;55.00;;;;;;5028152;28;20037;-69
2023/05/18 08:39:23;;;;;;;1.40;0.60;;;14.60;54.90;;;;;;5026564;28;20419;-69
2023/05/18 08:42:00;;;;;;;0.50;0.50;;;14.70;54.80;;;;;;5040537;28;20506;-69
2023/05/18 08:44:33;;;;;;;0.40;0.40;;;14.70;54.70;;;;;;5028092;28;20137;-69
2023/05/18 08:46:59;;;;;;;0.82;0.73;;;14.70;54.60;;;;;;5020178;28;20369;-63
2023/05/18 08:49:26;;;;;;;0.40;0.40;;;14.80;54.70;;;;;;5024414;28;20505;-62
2023/05/18 08:51:59;;;;;;;2.70;0.85;;;14.80;54.70;;;;;;5027070;28;20057;-62
2023/05/18 08:54:26;;;;;;;1.20;0.70;;;14.80;54.60;;;;;;5026326;28;20043;-62
2023/05/18 08:56:52;;;;;;;6.32;1.17;;;14.90;54.40;;;;;;5025772;28;20039;-62
2023/05/18 08:59:23;;;;;;;0.63;0.60;;;14.90;54.20;;;;;;5030804;28;20065;-62
2023/05/18 09:01:50;;;;;;;6.90;1.02;;;14.90;54.30;;;;;;5028292;28;20017;-69
2023/05/18 09:04:18;;;;;;;1.35;0.63;;;15.00;54.20;;;;;;5024512;28;20519;-70
2023/05/18 09:06:45;;;;;;;2.15;0.77;;;15.00;53.50;;;;;;5026530;28;20026;-69
2023/05/18 09:09:11;;;;;;;2.88;0.65;;;15.00;53.80;;;;;;5028522;28;20369;-69
2023/05/18 09:11:38;;;;;;;2.13;0.93;;;15.10;53.80;;;;;;5028667;28;20069;-70
2023/05/18 09:14:03;;;;;;;5.65;1.02;;;15.10;53.70;;;;;;5021790;28;20052;-70
2023/05/18 09:16:30;;;;;;;1.67;0.50;;;15.20;53.70;;;;;;5026335;28;20029;-63
2023/05/18 09:18:55;;;;;;;0.63;0.63;;;15.20;53.50;;;;;;5027624;28;20106;-62
2023/05/18 09:21:21;;;;;;;0.95;0.60;;;15.20;52.90;;;;;;5027465;28;20026;-62
2023/05/18 09:23:47;;;;;;;0.50;0.50;;;15.20;53.00;;;;;;5031468;28;20177;-69
2023/05/18 09:26:13;;;;;;;5.72;0.73;;;15.20;52.80;;;;;;5028676;28;20144;-69
2023/05/18 09:28:41;;;;;;;0.90;0.75;;;15.20;52.80;;;;;;5027037;28;20032;-69
2023/05/18 09:31:15;;;;;;;0.40;0.40;;;15.30;52.60;;;;;;5029681;28;20057;-69
2023/05/18 09:33:43;;;;;;;0.15;0.15;;;15.40;52.60;;;;;;5029745;28;20387;-62
2023/05/18 09:36:14;;;;;;;0.65;0.40;;;15.60;52.60;;;;;;5028074;28;20029;-69
2023/05/18 09:38:47;;;;;;;0.47;0.47;;;15.70;52.60;;;;;;5029840;28;20025;-62
2023/05/18 09:41:16;;;;;;;0.40;0.38;;;16.00;52.30;;;;;;5023249;28;20057;-69
2023/05/18 09:43:46;;;;;;;2.80;1.00;;;16.20;51.80;;;;;;5026537;28;20018;-69
2023/05/18 09:46:13;;;;;;;1.95;0.63;;;16.30;51.60;;;;;;5027482;28;20497;-63
2023/05/18 09:48:45;;;;;;;2.53;0.63;;;16.40;51.30;;;;;;5034843;28;20107;-62
2023/05/18 09:51:17;;;;;;;0.80;0.52;;;16.50;51.10;;;;;;5032679;28;20068;-70
2023/05/18 09:53:54;;;;;;;0.35;0.25;;;16.50;50.90;;;;;;5029032;28;20030;-69
2023/05/18 09:56:22;;;;;;;0.30;0.30;;;16.40;51.10;;;;;;5024772;28;20045;-62
2023/05/18 09:58:48;;;;;;;1.45;0.47;;;16.40;51.30;;;;;;5027907;28;20106;-69
2023/05/18 10:01:14;;;;;;;0.50;0.40;;;16.40;51.10;;;;;;5031196;28;20081;-69
2023/05/18 10:03:40;;;;;;;0.47;0.47;;;16.40;51.10;;;;;;5026491;28;20052;-68
2023/05/18 10:06:13;;;;;;;0.70;0.47;;;16.40;50.90;;;;;;5029918;28;20029;-63
2023/05/18 10:08:40;;;;;;;3.00;1.65;;;16.40;50.90;;;;;;5029670;28;21193;-63
2023/05/18 10:11:06;;;;;;;2.53;0.68;;;16.50;50.60;;;;;;5036511;28;20481;-69
2023/05/18 10:13:33;;;;;;;0.47;0.47;;;16.50;50.80;;;;;;5030600;28;20026;-62
2023/05/18 10:16:03;;;;;;;0.55;0.50;;;16.60;50.70;;;;;;5032096;28;20124;-62
2023/05/18 10:18:34;;;;;;;4.18;0.98;;;16.60;50.40;;;;;;5026957;28;20093;-62
2023/05/18 10:21:02;;;;;;;1.05;0.40;;;16.70;50.30;;;;;;5022637;28;20135;-62
2023/05/18 10:23:34;;;;;;;2.35;0.73;;;16.80;50.20;;;;;;5027577;28;20029;-69
2023/05/18 10:26:05;;;;;;;0.60;0.60;;;16.90;50.00;;;;;;5030986;28;20157;-62
2023/05/18 10:28:43;;;;;;;3.83;0.88;;;16.90;50.00;;;;;;5034906;28;20036;-69
2023/05/18 10:31:09;;;;;;;0.82;0.82;;;17.00;49.90;;;;;;5031771;28;20057;-63
2023/05/18 10:33:36;;;;;;;0.73;0.43;;;17.10;49.90;;;;;;5013163;28;20076;-69
2023/05/18 10:36:06;;;;;;;0.52;0.43;;;17.10;49.70;;;;;;5031394;28;20029;-69
2023/05/18 10:38:35;;;;;;;0.68;0.68;;;17.10;49.60;;;;;;5033345;28;20460;-62
2023/05/18 10:41:03;;;;;;;0.22;0.22;;;17.20;49.40;;;;;;5029432;28;20033;-62
2023/05/18 10:43:31;;;;;;;0.65;0.38;;;17.20;49.20;;;;;;5027597;28;20025;-69
2023/05/18 10:46:00;;;;;;;1.35;0.60;;;17.20;49.20;;;;;;5032046;28;20434;-63
2023/05/18 10:48:28;;;;;;;0.85;0.70;;;17.30;49.10;;;;;;5030171;28;20102;-70
2023/05/18 10:50:55;;;;;;;0.60;0.55;;;17.40;49.00;;;;;;5031106;28;20052;-69
2023/05/18 10:53:26;;;;;;;0.90;0.55;;;17.50;48.70;;;;;;5029897;28;20026;-66
2023/05/18 10:55:52;;;;;;;1.58;0.57;;;17.60;48.50;;;;;;5033623;28;20116;-66
2023/05/18 10:58:20;;;;;;;1.30;0.45;;;17.80;48.10;;;;;;5031566;28;20404;-63
2023/05/18 11:00:50;;;;;;;1.55;0.60;;;17.80;48.70;;;;;;5029226;28;20116;-66
2023/05/18 11:03:17;;;;;;;3.35;0.55;;;17.90;47.90;;;;;;5023129;28;20064;-66
2023/05/18 11:05:47;;;;;;;0.68;0.45;;;18.00;47.80;;;;;;5027384;28;20480;-66
2023/05/18 11:08:25;;;;;;;3.13;0.60;;;18.00;47.60;;;;;;5025394;28;20109;-66
2023/05/18 11:11:02;;;;;;;2.28;0.70;;;18.00;47.50;;;;;;5025103;28;20503;-66
2023/05/18 11:13:30;;;;;;;0.93;0.50;;;18.00;47.20;;;;;;5029443;28;20025;-66
2023/05/18 11:15:57;;;;;;;2.70;0.70;;;18.10;47.30;;;;;;5038372;28;20099;-63
2023/05/18 11:18:43;;;;;;;2.47;0.70;;;18.30;47.40;;;;;;5034317;28;20033;-63
2023/05/18 11:21:23;;;;;;;0.77;0.50;;;18.40;47.10;;;;;;5025910;28;20033;-63
2023/05/18 11:24:18;;;;;;;1.08;0.70;;;18.30;47.00;;;;;;5034354;28;20395;-63
2023/05/18 11:26:51;;;;;;;1.75;0.75;;;18.30;47.20;;;;;;5027027;28;20036;-63
2023/05/18 11:29:36;;;;;;;0.70;0.50;;;18.30;46.90;;;;;;5025671;28;20569;-63
2023/05/18 11:32:02;;;;;;;1.52;0.65;;;18.30;46.80;;;;;;5027662;28;20049;-63
2023/05/18 11:34:44;;;;;;;1.58;0.68;;;18.40;46.90;;;;;;5031768;28;20088;-63
2023/05/18 11:37:14;;;;;;;1.63;0.60;;;18.50;46.60;;;;;;5036896;28;20018;-67
2023/05/18 11:39:41;;;;;;;0.82;0.77;;;18.60;46.60;;;;;;5034995;28;20025;-67
2023/05/18 11:42:13;;;;;;;2.28;0.65;;;18.60;46.60;;;;;;5029104;28;20489;-67
2023/05/18 11:44:42;;;;;;;;;;;18.80;46.30;;;;;;5030940;28;20029;-67
2023/05/18 11:47:09;;;;;;;1.67;0.38;;;18.90;46.20;;;;;;5028902;28;19965;-67
2023/05/18 11:49:41;;;;;;;0.98;0.63;;;19.10;46.20;;;;;;5028886;28;20025;-63
2023/05/18 11:52:13;;;;;;;5.60;1.25;;;19.10;45.60;;;;;;5029593;28;20037;-64
2023/05/18 11:54:43;;;;;;;0.47;0.47;;;19.10;45.30;;;;;;5032302;28;20025;-63
2023/05/18 11:57:10;;;;;;;0.40;0.40;;;19.20;45.50;;;;;;5025901;28;20038;-66
2023/05/18 11:59:37;;;;;;;0.80;0.52;;;19.20;45.60;;;;;;5030448;28;20029;-63
2023/05/18 12:02:03;;;;;;;0.43;0.40;;;19.20;45.10;;;;;;5033412;28;20034;-63
2023/05/18 12:04:31;;;;;;;2.10;1.17;;;19.20;45.30;;;;;;5029234;28;20510;-67
2023/05/18 12:06:57;;;;;;;2.83;0.50;;;19.10;45.30;;;;;;5029530;28;20086;-63
2023/05/18 12:09:24;;;;;;;1.80;0.90;;;19.10;45.50;;;;;;5026240;28;20030;-64
2023/05/18 12:11:50;;;;;;;0.47;0.40;;;19.00;45.40;;;;;;5029531;28;20424;-67
2023/05/18 12:14:19;;;;;;;0.95;0.93;;;19.00;45.30;;;;;;5030874;28;20044;-67
2023/05/18 12:16:47;;;;;;;1.15;0.60;;;19.00;45.20;;;;;;5030384;28;20056;-67
2023/05/18 12:19:12;;;;;;;0.93;0.30;;;19.10;45.20;;;;;;5032596;28;20037;-64
2023/05/18 12:21:38;;;;;;;1.38;0.70;;;19.10;44.80;;;;;;5030310;28;20028;-67
2023/05/18 12:24:04;;;;;;;0.77;0.50;;;19.20;44.90;;;;;;5032380;28;20030;-67
2023/05/18 12:26:31;;;;;;;2.38;0.50;;;19.30;44.90;;;;;;5025769;28;20625;-64
2023/05/18 12:29:00;;;;;;;1.00;0.90;;;19.40;44.50;;;;;;5034439;28;20025;-67
2023/05/18 12:31:26;;;;;;;0.30;0.30;;;19.50;44.30;;;;;;5025693;28;20091;-67
2023/05/18 12:33:53;;;;;;;0.50;0.45;;;19.70;44.40;;;;;;5025868;28;20040;-68
2023/05/18 12:36:19;;;;;;;1.20;0.73;;;19.90;44.10;;;;;;5025103;28;20053;-64
2023/05/18 12:38:51;;;;;;;1.52;1.10;;;20.10;43.80;;;;;;5034484;28;20109;-67
2023/05/18 12:41:25;;;;;;;2.70;0.75;;;20.30;42.90;;;;;;5032928;28;20053;-64
2023/05/18 12:43:53;;;;;;;3.60;1.30;;;20.30;42.50;;;;;;5018591;28;20057;-64
2023/05/18 12:46:21;;;;;;;2.95;0.50;;;20.30;42.90;;;;;;5029408;28;20072;-64
2023/05/18 12:48:57;;;;;;;2.10;1.33;;;20.20;43.00;;;;;;5038215;28;20028;-67
2023/05/18 12:51:24;;;;;;;3.63;0.80;;;20.20;42.90;;;;;;5027594;28;20409;-68
2023/05/18 12:53:49;;;;;;;0.63;0.63;;;20.00;43.20;;;;;;5024493;28;20468;-67